Time;durP1;ratioP1;P1;durP2;ratioP2;P2;SDS_P1;SDS_P2;PMS_P1;PMS_P2;Temp;Humidity;BMP_temperature;BMP_pressure;BME280_temperature;BME280_humidity;BME280_pressure;Samples;Min_cycle;Max_cycle;Signal;HPM_P1;HPM_P2
2021/12/02 00:01:44;;;;;;;3.72;1.80;;;-3.50;92.80;;;;;;5029272;28;20050;-82
2021/12/02 00:04:10;;;;;;;2.58;2.17;;;-3.60;93.20;;;;;;5025871;28;20067;-81
2021/12/02 00:06:37;;;;;;;3.20;2.22;;;-3.60;93.40;;;;;;5034572;28;20097;-80
2021/12/02 00:09:03;;;;;;;3.25;2.47;;;-3.60;93.50;;;;;;5035267;28;20025;-81
2021/12/02 00:11:29;;;;;;;5.75;2.60;;;-3.60;93.50;;;;;;5033750;28;20048;-83
2021/12/02 00:13:58;;;;;;;4.97;2.75;;;-3.70;93.60;;;;;;5025638;28;20495;-88
2021/12/02 00:16:38;;;;;;;3.63;2.33;;;-3.70;93.60;;;;;;5041918;28;20053;-84
2021/12/02 00:21:51;;;;;;;4.28;2.25;;;-3.70;93.70;;;;;;5036183;28;20040;-84
2021/12/02 00:24:19;;;;;;;2.40;1.70;;;-3.70;94.20;;;;;;5034948;28;20030;-82
2021/12/02 00:26:49;;;;;;;4.63;2.72;;;-3.70;94.40;;;;;;5034712;28;20089;-83
2021/12/02 00:29:18;;;;;;;4.88;2.97;;;-3.70;94.40;;;;;;5034875;28;20497;-83
2021/12/02 00:31:46;;;;;;;4.13;2.53;;;-3.70;94.50;;;;;;5034161;28;20163;-84
2021/12/02 00:34:13;;;;;;;3.28;2.35;;;-3.70;94.60;;;;;;5034377;28;20201;-85
2021/12/02 00:36:43;;;;;;;5.13;3.35;;;-3.70;94.50;;;;;;5035877;28;20034;-86
2021/12/02 00:39:21;;;;;;;2.50;1.55;;;-3.70;94.20;;;;;;5037669;28;20467;-83
2021/12/02 00:41:47;;;;;;;4.60;2.50;;;-3.70;94.40;;;;;;5017057;28;20018;-83
2021/12/02 00:44:14;;;;;;;4.07;2.50;;;-3.70;94.20;;;;;;5028348;28;20030;-83
2021/12/02 00:46:41;;;;;;;2.78;1.98;;;-3.70;94.20;;;;;;5038796;28;20083;-82
2021/12/02 00:49:11;;;;;;;;;;;-3.70;94.40;;;;;;5040761;28;20039;-82
2021/12/02 00:51:38;;;;;;;2.42;2.10;;;-3.70;94.50;;;;;;5042263;28;19936;-85
2021/12/02 00:54:06;;;;;;;4.57;2.50;;;-3.70;94.60;;;;;;5034831;28;20057;-87
2021/12/02 00:56:33;;;;;;;6.60;2.78;;;-3.70;94.70;;;;;;5033713;28;20053;-85
2021/12/02 00:58:59;;;;;;;2.93;2.20;;;-3.70;94.80;;;;;;5034838;28;20029;-85
2021/12/02 01:01:27;;;;;;;3.67;2.50;;;-3.80;94.70;;;;;;5035299;28;20025;-86
2021/12/02 01:03:59;;;;;;;2.72;2.15;;;-3.70;94.80;;;;;;5017620;28;20475;-84
2021/12/02 01:06:26;;;;;;;2.25;1.52;;;-3.70;94.50;;;;;;5036437;28;20444;-85
2021/12/02 01:08:52;;;;;;;5.30;1.77;;;-3.70;94.40;;;;;;5022165;28;20085;-87
2021/12/02 01:11:18;;;;;;;3.77;1.80;;;-3.70;94.50;;;;;;5038540;28;20041;-82
2021/12/02 01:13:45;;;;;;;2.85;2.10;;;-3.70;94.40;;;;;;5034806;28;20283;-84
2021/12/02 01:16:12;;;;;;;4.05;1.85;;;-3.70;94.10;;;;;;5033555;28;20033;-83
2021/12/02 01:18:38;;;;;;;3.22;2.15;;;-3.70;94.00;;;;;;5035675;28;20112;-83
2021/12/02 01:21:17;;;;;;;2.17;1.50;;;-3.60;93.90;;;;;;5036233;28;20029;-83
2021/12/02 01:24:05;;;;;;;1.70;1.60;;;-3.60;94.00;;;;;;5035613;28;20072;-85
2021/12/02 01:26:40;;;;;;;3.90;2.78;;;-3.60;93.90;;;;;;5037718;28;20036;-83
2021/12/02 01:29:06;;;;;;;2.70;1.85;;;-3.60;93.90;;;;;;5034724;28;20026;-83
2021/12/02 01:31:35;;;;;;;2.72;1.52;;;-3.60;93.60;;;;;;5033852;28;20040;-83
2021/12/02 01:34:05;;;;;;;3.67;2.30;;;-3.60;93.50;;;;;;5033564;28;20076;-85
2021/12/02 01:36:39;;;;;;;4.32;2.13;;;-3.60;93.50;;;;;;5034497;28;20040;-82
2021/12/02 01:39:06;;;;;;;4.28;2.30;;;-3.60;93.40;;;;;;5035647;28;20022;-83
2021/12/02 01:41:42;;;;;;;2.15;1.55;;;-3.60;93.40;;;;;;5034095;28;20434;-87
2021/12/02 01:44:11;;;;;;;3.40;1.85;;;-3.60;93.10;;;;;;5033948;28;20061;-85
2021/12/02 01:46:38;;;;;;;3.35;2.13;;;-3.60;93.20;;;;;;5033660;28;20018;-83
2021/12/02 01:49:07;;;;;;;1.83;1.40;;;-3.60;93.30;;;;;;5033872;28;20104;-85
2021/12/02 01:51:43;;;;;;;3.92;1.95;;;-3.60;93.30;;;;;;5016356;28;20025;-85
2021/12/02 01:54:16;;;;;;;2.15;1.70;;;-3.60;93.40;;;;;;5033671;28;20487;-84
2021/12/02 01:56:50;;;;;;;4.32;1.30;;;-3.60;93.20;;;;;;5033936;28;20033;-83
2021/12/02 01:59:37;;;;;;;2.83;1.75;;;-3.60;93.30;;;;;;5035491;28;20040;-84
2021/12/02 02:02:10;;;;;;;4.07;2.20;;;-3.60;93.30;;;;;;5039400;28;20150;-82
2021/12/02 02:04:36;;;;;;;2.05;1.60;;;-3.60;93.20;;;;;;5039845;28;20079;-83
2021/12/02 02:07:10;;;;;;;1.73;1.38;;;-3.60;93.60;;;;;;5034762;28;20041;-82
2021/12/02 02:09:36;;;;;;;1.55;1.42;;;-3.60;93.60;;;;;;5036534;28;20018;-83
2021/12/02 02:12:04;;;;;;;1.33;1.20;;;-3.60;93.10;;;;;;5037936;28;20048;-83
2021/12/02 02:14:31;;;;;;;1.38;1.13;;;-3.60;92.70;;;;;;5038276;28;20045;-83
2021/12/02 02:17:00;;;;;;;3.10;1.30;;;-3.60;92.80;;;;;;5038600;28;20033;-82
2021/12/02 02:19:30;;;;;;;1.35;1.00;;;-3.60;93.00;;;;;;5037120;28;20055;-83
2021/12/02 02:21:56;;;;;;;0.80;0.80;;;-3.60;92.70;;;;;;5036942;28;20033;-84
2021/12/02 02:24:23;;;;;;;1.00;0.90;;;-3.70;92.80;;;;;;5020913;28;20017;-84
2021/12/02 02:26:49;;;;;;;2.00;1.43;;;-3.70;93.00;;;;;;5036976;28;20113;-82
2021/12/02 02:29:15;;;;;;;1.45;1.35;;;-3.70;92.60;;;;;;5036535;28;20341;-82
2021/12/02 02:31:43;;;;;;;2.10;1.30;;;-3.70;92.50;;;;;;5036301;28;20109;-81
2021/12/02 02:34:09;;;;;;;1.40;1.30;;;-3.70;92.40;;;;;;5036689;28;20125;-82
2021/12/02 02:36:40;;;;;;;4.97;1.70;;;-3.70;92.50;;;;;;5036546;28;20109;-83
2021/12/02 02:39:06;;;;;;;2.00;1.48;;;-3.60;92.80;;;;;;5038439;28;20021;-82
2021/12/02 02:41:37;;;;;;;2.85;2.65;;;-3.60;92.60;;;;;;5036477;28;20026;-81
2021/12/02 02:44:04;;;;;;;2.38;1.42;;;-3.60;92.70;;;;;;5036565;28;20343;-84
2021/12/02 02:46:35;;;;;;;1.25;1.17;;;-3.60;93.10;;;;;;5036555;28;20071;-83
2021/12/02 02:49:04;;;;;;;3.58;1.38;;;-3.60;93.20;;;;;;5036664;28;20069;-84
2021/12/02 02:51:32;;;;;;;1.85;1.08;;;-3.60;92.60;;;;;;5036349;28;20045;-83
2021/12/02 02:54:02;;;;;;;;;;;-3.60;92.60;;;;;;5036606;28;20029;-82
2021/12/02 02:56:30;;;;;;;1.98;1.17;;;-3.60;92.70;;;;;;5035671;28;19908;-84
2021/12/02 02:59:08;;;;;;;2.63;0.98;;;-3.60;92.60;;;;;;5038665;28;20025;-85
2021/12/02 03:12:30;;;;;;;1.52;1.33;;;-3.70;93.30;;;;;;5040482;28;20021;-85
2021/12/02 03:17:27;;;;;;;2.05;1.05;;;-3.70;93.10;;;;;;5036925;28;20403;-85
2021/12/02 03:19:53;;;;;;;1.35;1.10;;;-3.70;93.00;;;;;;5036620;28;20463;-86
2021/12/02 03:22:19;;;;;;;2.70;1.05;;;-3.70;92.90;;;;;;5036937;28;20032;-84
2021/12/02 03:24:45;;;;;;;2.08;1.45;;;-3.60;93.00;;;;;;5037471;28;20017;-85
2021/12/02 03:27:11;;;;;;;2.50;1.58;;;-3.70;92.70;;;;;;5037755;28;20380;-85
2021/12/02 03:29:37;;;;;;;1.38;1.27;;;-3.60;92.90;;;;;;5040772;28;20025;-85
2021/12/02 03:32:04;;;;;;;1.58;1.00;;;-3.60;93.00;;;;;;5045080;28;20025;-85
2021/12/02 03:34:30;;;;;;;1.52;1.02;;;-3.60;93.10;;;;;;5042438;28;20051;-85
2021/12/02 03:36:56;;;;;;;1.13;1.02;;;-3.60;93.00;;;;;;5042044;28;20044;-88
2021/12/02 03:39:22;;;;;;;1.00;0.90;;;-3.60;92.90;;;;;;5040100;28;20057;-86
2021/12/02 03:41:48;;;;;;;1.70;1.30;;;-3.60;93.10;;;;;;5020993;28;20509;-83
2021/12/02 03:44:14;;;;;;;1.67;1.30;;;-3.60;93.10;;;;;;5035613;28;20057;-82
2021/12/02 03:46:41;;;;;;;3.90;1.20;;;-3.50;93.00;;;;;;5017507;28;20064;-82
2021/12/02 03:49:07;;;;;;;1.92;1.33;;;-3.60;93.00;;;;;;5035337;28;20021;-84
2021/12/02 03:51:33;;;;;;;3.63;1.20;;;-3.60;93.20;;;;;;5035550;28;20025;-82
2021/12/02 03:54:00;;;;;;;2.78;1.27;;;-3.60;93.00;;;;;;5035545;28;20136;-84
2021/12/02 03:56:27;;;;;;;2.30;1.30;;;-3.60;93.10;;;;;;5035159;28;20026;-84
2021/12/02 03:58:53;;;;;;;4.13;1.42;;;-3.50;93.20;;;;;;5035804;28;20100;-82
2021/12/02 04:01:21;;;;;;;2.03;1.40;;;-3.50;93.40;;;;;;5035723;28;20025;-84
2021/12/02 04:03:48;;;;;;;1.40;1.30;;;-3.60;93.50;;;;;;5036730;28;20017;-85
2021/12/02 04:06:14;;;;;;;2.63;1.90;;;-3.60;93.30;;;;;;5022045;28;20026;-84
2021/12/02 04:11:18;;;;;;;7.50;2.47;;;-3.60;93.30;;;;;;5036774;28;20025;-84
2021/12/02 04:16:21;;;;;;;2.42;1.70;;;-3.60;92.80;;;;;;5046989;28;20044;-88
2021/12/02 04:18:47;;;;;;;3.75;2.33;;;-3.50;92.70;;;;;;5038795;28;20109;-86
2021/12/02 04:21:12;;;;;;;3.13;2.35;;;-3.50;92.70;;;;;;5039484;28;20025;-87
2021/12/02 04:23:39;;;;;;;10.38;4.88;;;-3.50;92.90;;;;;;5039660;28;20570;-86
2021/12/02 04:26:05;;;;;;;3.15;2.00;;;-3.50;92.80;;;;;;5045240;28;20021;-85
2021/12/02 04:28:31;;;;;;;6.25;2.30;;;-3.50;93.10;;;;;;5037792;28;20167;-85
2021/12/02 04:31:04;;;;;;;3.88;2.00;;;-3.50;93.10;;;;;;5035597;28;20053;-86
2021/12/02 04:33:30;;;;;;;4.47;2.17;;;-3.50;92.90;;;;;;5035428;28;20025;-83
2021/12/02 04:35:57;;;;;;;2.75;1.95;;;-3.50;92.70;;;;;;5017252;28;20036;-84
2021/12/02 04:38:22;;;;;;;3.72;2.22;;;-3.50;92.70;;;;;;5036173;28;20033;-84
2021/12/02 04:40:48;;;;;;;3.35;2.00;;;-3.50;92.90;;;;;;5035036;28;20031;-86
2021/12/02 04:43:14;;;;;;;3.65;1.98;;;-3.50;93.20;;;;;;5035008;28;20045;-85
2021/12/02 04:45:40;;;;;;;4.10;2.17;;;-3.50;93.20;;;;;;5030200;28;20025;-86
2021/12/02 04:48:06;;;;;;;4.28;2.13;;;-3.40;93.40;;;;;;5019212;28;20030;-86
2021/12/02 04:50:33;;;;;;;3.05;1.52;;;-3.40;93.80;;;;;;5016510;28;20034;-88
2021/12/02 04:52:58;;;;;;;4.63;2.15;;;-3.50;94.00;;;;;;5023624;28;20036;-87
2021/12/02 04:55:24;;;;;;;3.92;2.63;;;-3.50;94.00;;;;;;5037561;28;20017;-86
2021/12/02 04:57:50;;;;;;;3.28;2.20;;;-3.60;93.90;;;;;;5036648;28;20041;-86
2021/12/02 05:00:17;;;;;;;2.22;2.00;;;-3.60;93.40;;;;;;5018083;28;20028;-85
2021/12/02 05:02:43;;;;;;;3.93;3.17;;;-3.70;92.80;;;;;;5036609;28;20048;-85
2021/12/02 05:05:09;;;;;;;3.17;2.40;;;-3.70;93.40;;;;;;5018981;28;20029;-87
2021/12/02 05:07:35;;;;;;;7.10;3.00;;;-3.80;93.30;;;;;;5035993;28;20731;-85
2021/12/02 05:10:05;;;;;;;4.53;2.78;;;-3.80;93.40;;;;;;5035781;28;20022;-88
2021/12/02 05:12:32;;;;;;;6.75;2.70;;;-3.80;93.20;;;;;;5018308;28;20076;-86
2021/12/02 05:15:00;;;;;;;4.95;3.30;;;-3.80;93.30;;;;;;5038570;28;20053;-87
2021/12/02 05:17:26;;;;;;;4.05;2.20;;;-3.80;93.20;;;;;;5035363;28;20086;-84
2021/12/02 05:19:51;;;;;;;5.10;2.63;;;-3.80;93.00;;;;;;5039900;28;20025;-85
2021/12/02 05:22:17;;;;;;;7.50;2.83;;;-3.80;92.90;;;;;;5038110;28;20033;-88
2021/12/02 05:24:43;;;;;;;4.75;2.67;;;-3.80;93.00;;;;;;5030299;28;20088;-86
2021/12/02 05:27:09;;;;;;;6.80;2.47;;;-3.80;92.70;;;;;;5043778;28;20505;-89
2021/12/02 05:29:34;;;;;;;3.47;2.30;;;-3.80;92.60;;;;;;5037321;28;20474;-88
2021/12/02 05:32:00;;;;;;;3.95;2.28;;;-3.80;92.70;;;;;;5018406;28;20037;-86
2021/12/02 05:34:26;;;;;;;3.70;2.22;;;-3.80;92.90;;;;;;5035558;28;20075;-86
2021/12/02 05:36:53;;;;;;;2.67;2.15;;;-3.90;92.70;;;;;;5020717;28;20036;-86
2021/12/02 05:39:19;;;;;;;4.82;2.45;;;-3.90;92.50;;;;;;5017120;28;20037;-87
2021/12/02 05:41:45;;;;;;;5.03;2.60;;;-3.90;92.30;;;;;;5025125;28;20022;-85
2021/12/02 05:44:11;;;;;;;4.25;2.40;;;-3.90;92.30;;;;;;5035785;28;20034;-87
2021/12/02 05:46:37;;;;;;;2.50;1.92;;;-3.90;92.30;;;;;;5031756;28;20032;-87
2021/12/02 05:49:03;;;;;;;3.63;2.03;;;-3.90;92.50;;;;;;5024238;28;20025;-88
2021/12/02 05:51:29;;;;;;;2.97;2.03;;;-3.90;92.60;;;;;;5022963;28;20010;-88
2021/12/02 05:53:55;;;;;;;2.83;2.05;;;-3.90;92.90;;;;;;5036138;28;20022;-87
2021/12/02 05:56:21;;;;;;;2.63;1.88;;;-4.00;93.20;;;;;;5035267;28;20048;-86
2021/12/02 05:58:47;;;;;;;3.25;2.42;;;-4.00;93.30;;;;;;5035954;28;20078;-88
2021/12/02 06:01:13;;;;;;;2.67;1.73;;;-4.00;93.30;;;;;;5036624;28;20033;-87
2021/12/02 06:03:40;;;;;;;4.05;2.25;;;-4.00;93.00;;;;;;5049854;28;20185;-85
2021/12/02 06:06:06;;;;;;;5.47;2.33;;;-4.00;92.80;;;;;;5037401;28;20022;-86
2021/12/02 06:08:33;;;;;;;4.90;2.13;;;-3.90;92.80;;;;;;5035454;28;20104;-86
2021/12/02 06:10:59;;;;;;;7.73;3.20;;;-3.90;92.90;;;;;;5018867;28;20029;-86
2021/12/02 06:13:26;;;;;;;2.88;2.08;;;-3.90;92.90;;;;;;5039702;28;20538;-87
2021/12/02 06:15:53;;;;;;;2.88;2.10;;;-3.90;92.60;;;;;;5050544;28;20078;-85
2021/12/02 06:18:21;;;;;;;2.70;2.10;;;-3.90;92.40;;;;;;5021084;28;20044;-84
2021/12/02 06:20:51;;;;;;;3.22;1.60;;;-3.80;92.60;;;;;;5036773;28;20033;-89
2021/12/02 06:23:17;;;;;;;2.08;1.67;;;-3.80;92.80;;;;;;5040160;28;20029;-89
2021/12/02 06:25:47;;;;;;;2.67;1.85;;;-3.80;92.80;;;;;;5040937;28;20052;-87
2021/12/02 06:28:15;;;;;;;2.95;1.83;;;-3.70;92.80;;;;;;5042602;28;20458;-88
2021/12/02 06:30:42;;;;;;;3.67;2.17;;;-3.70;92.80;;;;;;5037515;28;20025;-88
2021/12/02 06:33:08;;;;;;;5.00;4.43;;;-3.70;92.80;;;;;;5041764;28;20045;-88
2021/12/02 06:35:34;;;;;;;3.65;2.13;;;-3.70;92.70;;;;;;5048825;28;20029;-87
2021/12/02 06:38:00;;;;;;;3.60;2.33;;;-3.60;92.90;;;;;;5026670;28;20044;-89
2021/12/02 06:40:26;;;;;;;4.88;2.60;;;-3.60;92.40;;;;;;5044870;28;20426;-85
2021/12/02 06:42:52;;;;;;;4.70;3.17;;;-3.50;92.00;;;;;;5035195;28;20394;-87
2021/12/02 06:45:19;;;;;;;4.70;2.42;;;-3.50;91.80;;;;;;5036507;28;20049;-86
2021/12/02 06:47:46;;;;;;;3.85;2.83;;;-3.40;91.70;;;;;;5035827;28;20025;-93
2021/12/02 06:50:19;;;;;;;3.95;2.63;;;-3.40;91.50;;;;;;5038585;28;20088;-90
2021/12/02 06:52:49;;;;;;;5.90;2.10;;;-3.30;91.60;;;;;;5036980;28;20029;-88
2021/12/02 06:55:16;;;;;;;4.13;2.38;;;-3.30;91.30;;;;;;5036999;28;20029;-88
2021/12/02 06:57:42;;;;;;;3.42;2.30;;;-3.20;91.30;;;;;;5044422;28;20036;-85
2021/12/02 07:00:11;;;;;;;3.60;2.35;;;-3.20;90.90;;;;;;5049609;28;20029;-85
2021/12/02 07:02:39;;;;;;;2.65;2.17;;;-3.20;90.80;;;;;;5045022;28;20081;-91
2021/12/02 07:05:08;;;;;;;3.92;1.83;;;-3.10;90.60;;;;;;5043730;28;20048;-90
2021/12/02 07:07:41;;;;;;;3.38;2.53;;;-3.10;91.00;;;;;;5042906;28;20009;-90
2021/12/02 07:10:13;;;;;;;3.45;1.85;;;-3.00;91.30;;;;;;5023580;28;20168;-90
2021/12/02 07:12:41;;;;;;;3.20;2.25;;;-3.00;91.20;;;;;;5041724;28;20171;-90
2021/12/02 07:15:19;;;;;;;4.32;2.25;;;-2.90;91.20;;;;;;5042265;28;20075;-90
2021/12/02 07:17:53;;;;;;;5.10;2.53;;;-2.90;91.10;;;;;;5028996;28;20099;-91
2021/12/02 07:20:19;;;;;;;3.60;2.10;;;-2.80;90.70;;;;;;5048435;28;20021;-89
2021/12/02 07:22:45;;;;;;;3.05;2.08;;;-2.80;90.50;;;;;;5043834;28;20055;-90
2021/12/02 07:25:11;;;;;;;2.60;2.38;;;-2.80;90.30;;;;;;5041534;28;20022;-91
2021/12/02 07:27:37;;;;;;;4.35;2.33;;;-2.70;90.30;;;;;;5025037;28;20036;-91
2021/12/02 07:30:05;;;;;;;2.22;1.83;;;-2.70;90.40;;;;;;5043887;28;20028;-91
2021/12/02 07:32:37;;;;;;;5.07;2.72;;;-2.70;90.30;;;;;;5007123;28;20026;-89
2021/12/02 07:35:07;;;;;;;4.88;3.78;;;-2.70;90.10;;;;;;5024175;28;20108;-91
2021/12/02 07:37:34;;;;;;;4.53;2.05;;;-2.60;90.10;;;;;;5040833;28;20121;-91
2021/12/02 07:40:00;;;;;;;7.18;5.07;;;-2.60;90.30;;;;;;5040242;28;20021;-90
2021/12/02 07:42:26;;;;;;;8.18;5.47;;;-2.60;90.20;;;;;;5040484;28;20075;-91
2021/12/02 07:44:52;;;;;;;5.57;2.97;;;-2.60;90.00;;;;;;5041293;28;20028;-90
2021/12/02 07:47:19;;;;;;;3.58;2.70;;;-2.60;89.30;;;;;;5026584;28;20026;-90
2021/12/02 07:49:49;;;;;;;2.95;2.17;;;-2.50;88.90;;;;;;5024933;28;20013;-89
2021/12/02 07:52:18;;;;;;;11.50;3.45;;;-2.50;89.20;;;;;;5052686;28;20025;-89
2021/12/02 07:54:46;;;;;;;3.83;2.10;;;-2.50;89.30;;;;;;5054957;28;20021;-91
2021/12/02 07:57:14;;;;;;;2.42;2.22;;;-2.40;90.30;;;;;;5053768;28;20034;-89
2021/12/02 07:59:40;;;;;;;2.38;2.00;;;-2.40;90.50;;;;;;5032148;28;20036;-89
2021/12/02 08:02:11;;;;;;;10.45;2.10;;;-2.40;90.70;;;;;;5042528;28;20030;-91
2021/12/02 08:04:37;;;;;;;9.52;2.33;;;-2.40;90.40;;;;;;5045518;28;20433;-88
2021/12/02 08:07:02;;;;;;;9.55;3.85;;;-2.40;90.30;;;;;;5042781;28;20021;-89
2021/12/02 08:09:29;;;;;;;2.70;2.17;;;-2.40;90.60;;;;;;5048645;28;20033;-87
2021/12/02 08:11:58;;;;;;;6.75;2.97;;;-2.40;90.80;;;;;;5048563;28;20391;-89
2021/12/02 08:14:24;;;;;;;3.13;2.00;;;-2.40;90.70;;;;;;5050521;28;20047;-87
2021/12/02 08:16:50;;;;;;;12.70;5.47;;;-2.40;91.20;;;;;;5047134;28;20060;-89
2021/12/02 08:19:16;;;;;;;5.00;3.13;;;-2.40;91.60;;;;;;5042246;28;20045;-92
2021/12/02 08:21:42;;;;;;;4.97;3.17;;;-2.40;91.50;;;;;;5042789;28;20019;-91
2021/12/02 08:24:07;;;;;;;11.02;5.32;;;-2.40;91.50;;;;;;5040091;28;20076;-91
2021/12/02 08:26:33;;;;;;;3.85;3.10;;;-2.40;91.30;;;;;;5039458;28;20025;-89
2021/12/02 08:29:00;;;;;;;9.32;4.65;;;-2.40;90.80;;;;;;5039611;28;20059;-92
2021/12/02 08:31:26;;;;;;;4.25;3.15;;;-2.40;90.60;;;;;;5039700;28;20033;-90
2021/12/02 08:33:53;;;;;;;4.82;2.88;;;-2.40;91.40;;;;;;5039260;28;20021;-90
2021/12/02 08:36:24;;;;;;;5.93;3.38;;;-2.30;91.50;;;;;;5042763;28;20028;-88
2021/12/02 08:38:50;;;;;;;6.18;3.45;;;-2.30;91.30;;;;;;5046557;28;20049;-90
2021/12/02 08:41:19;;;;;;;5.97;3.35;;;-2.30;91.20;;;;;;5041934;28;20341;-91
2021/12/02 08:43:47;;;;;;;5.30;3.58;;;-2.30;91.10;;;;;;5039121;28;20026;-91
2021/12/02 08:46:13;;;;;;;5.38;3.22;;;-2.20;90.70;;;;;;5038271;28;20482;-90
2021/12/02 08:48:39;;;;;;;5.32;3.92;;;-2.20;90.80;;;;;;5040306;28;20026;-91
2021/12/02 08:51:06;;;;;;;5.57;3.03;;;-2.20;91.30;;;;;;5041429;28;20032;-91
2021/12/02 08:53:32;;;;;;;5.63;3.10;;;-2.20;91.60;;;;;;5025560;28;20021;-91
2021/12/02 08:56:01;;;;;;;3.63;2.85;;;-2.10;91.90;;;;;;5044748;28;20055;-90
2021/12/02 08:58:26;;;;;;;4.10;2.42;;;-2.10;92.00;;;;;;5043382;28;20060;-89
2021/12/02 09:00:52;;;;;;;6.20;3.00;;;-2.10;92.70;;;;;;5039289;28;20021;-88
2021/12/02 09:03:21;;;;;;;4.03;2.70;;;-2.10;93.10;;;;;;5040591;28;20030;-91
2021/12/02 09:05:47;;;;;;;4.72;2.10;;;-2.10;92.80;;;;;;5047361;28;20104;-91
2021/12/02 09:08:15;;;;;;;5.18;3.53;;;-2.10;93.00;;;;;;5049737;28;20029;-89
2021/12/02 09:10:41;;;;;;;6.10;2.88;;;-2.20;93.20;;;;;;5042623;28;20021;-90
2021/12/02 09:13:10;;;;;;;5.13;3.60;;;-2.30;93.00;;;;;;5040049;28;20064;-90
2021/12/02 09:15:38;;;;;;;7.40;2.90;;;-2.30;92.90;;;;;;5041383;28;20018;-89
2021/12/02 09:18:03;;;;;;;;;;;-2.40;93.40;;;;;;5022940;28;20137;-91
2021/12/02 09:20:29;;;;;;;6.55;4.25;;;-2.40;93.40;;;;;;5049247;28;19912;-91
2021/12/02 09:22:55;;;;;;;7.30;3.72;;;-2.40;93.90;;;;;;5026776;28;20035;-91
2021/12/02 09:25:22;;;;;;;4.60;2.65;;;-2.40;94.20;;;;;;5021363;28;20022;-92
2021/12/02 09:27:48;;;;;;;7.43;4.63;;;-2.40;94.10;;;;;;5022084;28;20029;-93
2021/12/02 09:30:14;;;;;;;4.63;2.95;;;-2.30;94.20;;;;;;5038758;28;20660;-92
2021/12/02 09:32:41;;;;;;;7.43;3.50;;;-2.30;94.00;;;;;;5038118;28;20044;-94
2021/12/02 09:35:08;;;;;;;5.68;3.45;;;-2.30;94.00;;;;;;5024653;28;20064;-92
2021/12/02 09:37:34;;;;;;;;;;;-2.20;94.20;;;;;;5041381;28;20037;-91
2021/12/02 09:40:01;;;;;;;7.15;3.20;;;-2.20;93.90;;;;;;5041821;28;19989;-92
2021/12/02 09:42:27;;;;;;;2.88;2.45;;;-2.10;94.40;;;;;;5009823;28;20041;-92
2021/12/02 09:45:00;;;;;;;4.53;2.92;;;-2.10;94.70;;;;;;5028939;28;20491;-90
2021/12/02 09:47:32;;;;;;;5.55;2.92;;;-2.10;94.80;;;;;;5041267;28;20028;-90
2021/12/02 09:50:08;;;;;;;3.60;2.42;;;-2.10;94.70;;;;;;5024188;28;20120;-92
2021/12/02 09:52:40;;;;;;;3.75;2.22;;;-2.20;94.20;;;;;;5031551;28;20014;-84
2021/12/02 09:55:16;;;;;;;5.80;2.50;;;-2.20;94.30;;;;;;5040429;28;20025;-90
2021/12/02 09:57:58;;;;;;;4.10;2.83;;;-2.20;94.30;;;;;;5055971;28;20033;-95
2021/12/02 10:00:42;;;;;;;7.10;2.60;;;-2.30;94.50;;;;;;5040324;28;20060;-92
2021/12/02 10:05:55;;;;;;;2.63;2.20;;;-2.30;94.50;;;;;;5052705;28;20087;-91
2021/12/02 10:08:30;;;;;;;6.47;3.25;;;-2.40;94.90;;;;;;5049258;28;20044;-91
2021/12/02 10:11:08;;;;;;;5.15;2.50;;;-2.40;95.00;;;;;;5047016;28;20021;-91
2021/12/02 10:14:00;;;;;;;6.72;2.92;;;-2.30;94.50;;;;;;5053497;28;20072;-92
2021/12/02 10:16:28;;;;;;;4.28;2.22;;;-2.30;94.60;;;;;;5054558;28;20037;-89
2021/12/02 10:19:10;;;;;;;3.53;2.60;;;-2.40;93.90;;;;;;5044752;28;20036;-90
2021/12/02 10:21:44;;;;;;;5.60;2.10;;;-2.40;93.80;;;;;;5038962;28;20036;-91
2021/12/02 10:24:29;;;;;;;2.47;2.22;;;-2.50;94.20;;;;;;5040092;28;20037;-90
2021/12/02 10:27:05;;;;;;;;;;;-2.50;94.10;;;;;;5039403;28;20025;-91
2021/12/02 10:29:34;;;;;;;1.85;1.35;;;-2.50;93.10;;;;;;5039591;28;19986;-91
2021/12/02 10:32:21;;;;;;;2.97;1.80;;;-2.60;93.40;;;;;;5044868;28;20037;-91
2021/12/02 10:35:03;;;;;;;6.80;2.63;;;-2.60;94.00;;;;;;5040094;28;20029;-91
2021/12/02 10:37:32;;;;;;;4.30;2.15;;;-2.70;93.80;;;;;;5042024;28;20043;-91
2021/12/02 10:40:11;;;;;;;5.57;2.47;;;-2.70;94.40;;;;;;5023931;28;20029;-91
2021/12/02 10:42:42;;;;;;;3.03;1.75;;;-2.70;94.20;;;;;;5042314;28;20029;-91
2021/12/02 10:45:24;;;;;;;4.45;2.55;;;-2.70;93.90;;;;;;5025428;28;20029;-92
2021/12/02 10:47:52;;;;;;;3.05;2.72;;;-2.80;94.60;;;;;;5029217;28;20052;-91
2021/12/02 10:50:19;;;;;;;2.75;1.70;;;-2.70;94.10;;;;;;5043674;28;20387;-90
2021/12/02 10:52:46;;;;;;;3.58;2.35;;;-2.80;93.60;;;;;;5043019;28;20029;-89
2021/12/02 10:55:18;;;;;;;5.45;3.25;;;-2.80;93.70;;;;;;5046278;28;20022;-89
2021/12/02 10:57:52;;;;;;;3.15;2.20;;;-2.80;93.70;;;;;;5045988;28;20424;-90
2021/12/02 11:00:28;;;;;;;2.10;1.73;;;-2.80;93.80;;;;;;5047247;28;20025;-89
2021/12/02 11:02:59;;;;;;;5.28;2.60;;;-2.80;94.10;;;;;;5048008;28;20064;-89
2021/12/02 11:05:32;;;;;;;3.58;2.78;;;-2.80;94.50;;;;;;5042534;28;20030;-92
2021/12/02 11:08:07;;;;;;;3.95;2.42;;;-2.80;94.40;;;;;;5043846;28;20032;-92
2021/12/02 11:10:50;;;;;;;3.90;2.75;;;-2.70;94.70;;;;;;5044393;28;20094;-91
2021/12/02 11:13:28;;;;;;;4.47;3.17;;;-2.70;94.70;;;;;;5044187;28;20045;-92
2021/12/02 11:15:59;;;;;;;3.88;2.40;;;-2.70;95.10;;;;;;5028315;28;20036;-90
2021/12/02 11:18:28;;;;;;;6.82;3.63;;;-2.60;95.10;;;;;;5045824;28;20029;-91
2021/12/02 11:20:59;;;;;;;4.78;2.72;;;-2.60;95.20;;;;;;5049229;28;20085;-91
2021/12/02 11:23:30;;;;;;;6.20;2.83;;;-2.50;95.30;;;;;;5053886;28;20048;-90
2021/12/02 11:26:08;;;;;;;2.50;1.70;;;-2.40;94.80;;;;;;5048141;28;20043;-93
2021/12/02 11:28:36;;;;;;;7.82;3.97;;;-2.40;95.30;;;;;;5028793;28;20026;-92
2021/12/02 11:31:15;;;;;;;5.47;4.28;;;-2.40;94.90;;;;;;5043820;28;20039;-91
2021/12/02 11:33:43;;;;;;;4.78;2.78;;;-2.40;94.60;;;;;;5042536;28;20360;-92
2021/12/02 11:36:24;;;;;;;5.30;3.25;;;-2.40;94.20;;;;;;5043116;28;20090;-92
2021/12/02 11:38:59;;;;;;;5.00;2.17;;;-2.40;94.80;;;;;;5042965;28;20069;-91
2021/12/02 11:41:26;;;;;;;5.97;3.75;;;-2.40;94.80;;;;;;5025223;28;20411;-90
2021/12/02 11:43:55;;;;;;;5.90;4.22;;;-2.40;94.20;;;;;;5028590;28;20395;-90
2021/12/02 11:46:22;;;;;;;6.90;4.13;;;-2.40;94.60;;;;;;5027132;28;20018;-93
2021/12/02 11:48:48;;;;;;;7.60;4.50;;;-2.40;95.10;;;;;;5043350;28;20048;-92
2021/12/02 11:51:18;;;;;;;6.57;4.40;;;-2.40;95.20;;;;;;5035266;28;20573;-91
2021/12/02 11:53:47;;;;;;;12.25;4.93;;;-2.40;95.70;;;;;;5027235;28;20036;-94
2021/12/02 11:56:18;;;;;;;7.18;4.93;;;-2.30;95.10;;;;;;5025298;28;20490;-91
2021/12/02 11:58:44;;;;;;;6.10;3.42;;;-2.40;95.30;;;;;;5035257;28;20060;-91
2021/12/02 12:01:22;;;;;;;6.05;3.83;;;-2.40;95.40;;;;;;5057882;28;20060;-91
2021/12/02 12:03:56;;;;;;;5.45;4.00;;;-2.40;96.00;;;;;;5042239;28;20026;-92
2021/12/02 12:06:31;;;;;;;8.93;4.22;;;-2.40;96.40;;;;;;5029237;28;20022;-92
2021/12/02 12:08:58;;;;;;;5.70;3.75;;;-2.40;96.30;;;;;;5047736;28;20060;-92
2021/12/02 12:11:35;;;;;;;7.17;4.47;;;-2.40;96.40;;;;;;5050183;28;20108;-92
2021/12/02 12:14:08;;;;;;;6.82;4.85;;;-2.40;96.70;;;;;;5038444;28;20289;-91
2021/12/02 12:16:37;;;;;;;6.70;3.55;;;-2.40;96.70;;;;;;5041673;28;20006;-92
2021/12/02 12:19:29;;;;;;;8.30;5.55;;;-2.40;96.80;;;;;;5041605;28;20029;-93
2021/12/02 12:22:06;;;;;;;7.90;3.08;;;-2.50;97.10;;;;;;5040743;28;20038;-91
2021/12/02 12:24:53;;;;;;;15.48;6.03;;;-2.50;97.30;;;;;;5056342;28;20025;-90
2021/12/02 12:27:31;;;;;;;7.72;3.85;;;-2.50;97.60;;;;;;5039855;28;20030;-91
2021/12/02 12:30:04;;;;;;;6.72;3.50;;;-2.50;97.60;;;;;;5057008;28;20055;-93
2021/12/02 12:37:54;;;;;;;7.38;3.30;;;-2.50;97.90;;;;;;5047577;28;20092;-92
2021/12/02 12:40:33;;;;;;;8.50;4.82;;;-2.60;98.00;;;;;;5025868;28;20034;-91
2021/12/02 12:43:22;;;;;;;11.63;4.65;;;-2.60;98.30;;;;;;5025497;28;20475;-92
2021/12/02 12:45:48;;;;;;;5.85;3.20;;;-2.60;98.40;;;;;;4963213;29;20035;-90
2021/12/02 12:48:30;;;;;;;9.18;6.03;;;-2.60;98.40;;;;;;4977339;28;20031;-93
2021/12/02 12:51:18;;;;;;;5.40;4.10;;;-2.60;98.90;;;;;;4962795;29;20047;-90
2021/12/02 12:53:45;;;;;;;;;;;-2.60;99.20;;;;;;4946334;29;20433;-91
2021/12/02 12:56:15;;;;;;;5.47;3.80;;;-2.50;99.10;;;;;;4961021;29;20094;-92
2021/12/02 12:58:53;;;;;;;5.80;4.40;;;-2.50;99.30;;;;;;4960537;29;20042;-91
2021/12/02 13:01:27;;;;;;;9.48;6.00;;;-2.50;99.50;;;;;;4961701;29;20027;-91
2021/12/02 13:04:08;;;;;;;9.48;5.15;;;-2.50;99.70;;;;;;4963392;29;20035;-91
2021/12/02 13:07:04;;;;;;;7.00;2.97;;;-2.50;99.80;;;;;;4968355;29;20027;-93
2021/12/02 13:12:39;;;;;;;10.15;3.45;;;-2.40;99.40;;;;;;4966894;29;20051;-92
2021/12/02 13:15:07;;;;;;;7.93;3.80;;;-2.50;99.30;;;;;;4952318;29;20045;-90
2021/12/02 13:18:00;;;;;;;;;;;-2.50;99.50;;;;;;4964641;29;20058;-92
2021/12/02 13:20:35;;;;;;;8.38;5.30;;;-2.50;99.50;;;;;;4925148;29;19999;-92
2021/12/02 13:23:12;;;;;;;9.38;3.70;;;-2.50;99.90;;;;;;4957521;28;20035;-90
2021/12/02 13:25:54;;;;;;;10.85;5.18;;;-2.50;99.90;;;;;;4981562;28;20039;-92
2021/12/02 13:28:33;;;;;;;12.25;4.25;;;-2.40;99.90;;;;;;4972923;28;20370;-91
2021/12/02 13:31:04;;;;;;;4.15;3.22;;;-2.40;99.90;;;;;;4968644;28;20153;-91
2021/12/02 13:33:50;;;;;;;7.13;4.72;;;-2.30;99.90;;;;;;4972097;28;20031;-92